sensor_id;sensor_type;location;lat;lon;timestamp;temperature;humidity
75683;HTU21D;64295;44.772;39.872;2023-09-19T00:00:34;15.00;48.76
75683;HTU21D;64295;44.772;39.872;2023-09-19T00:03:01;15.00;48.79
75683;HTU21D;64295;44.772;39.872;2023-09-19T00:05:34;14.96;48.87
75683;HTU21D;64295;44.772;39.872;2023-09-19T00:08:01;14.96;48.87
75683;HTU21D;64295;44.772;39.872;2023-09-19T00:10:30;14.93;48.91
75683;HTU21D;64295;44.772;39.872;2023-09-19T00:13:00;14.92;48.94
75683;HTU21D;64295;44.772;39.872;2023-09-19T00:15:26;14.88;48.99
75683;HTU21D;64295;44.772;39.872;2023-09-19T00:17:56;14.86;49.03
75683;HTU21D;64295;44.772;39.872;2023-09-19T00:20:22;14.84;49.07
75683;HTU21D;64295;44.772;39.872;2023-09-19T00:22:50;14.84;49.09
75683;HTU21D;64295;44.772;39.872;2023-09-19T00:25:20;14.82;49.15
75683;HTU21D;64295;44.772;39.872;2023-09-19T00:27:46;14.80;49.16
75683;HTU21D;64295;44.772;39.872;2023-09-19T00:30:13;14.81;49.17
75683;HTU21D;64295;44.772;39.872;2023-09-19T00:32:47;14.80;49.22
75683;HTU21D;64295;44.772;39.872;2023-09-19T00:35:13;14.81;49.20
75683;HTU21D;64295;44.772;39.872;2023-09-19T00:37:41;14.80;49.21
75683;HTU21D;64295;44.772;39.872;2023-09-19T00:40:08;14.83;49.21
75683;HTU21D;64295;44.772;39.872;2023-09-19T00:42:44;14.83;49.21
75683;HTU21D;64295;44.772;39.872;2023-09-19T00:45:12;14.80;49.29
75683;HTU21D;64295;44.772;39.872;2023-09-19T00:47:49;14.77;49.40
75683;HTU21D;64295;44.772;39.872;2023-09-19T00:50:17;14.77;49.37
75683;HTU21D;64295;44.772;39.872;2023-09-19T00:52:44;14.75;49.32
75683;HTU21D;64295;44.772;39.872;2023-09-19T00:55:11;14.72;49.34
75683;HTU21D;64295;44.772;39.872;2023-09-19T00:57:39;14.71;49.40
75683;HTU21D;64295;44.772;39.872;2023-09-19T01:00:06;14.69;49.46
75683;HTU21D;64295;44.772;39.872;2023-09-19T01:02:34;14.68;49.50
75683;HTU21D;64295;44.772;39.872;2023-09-19T01:05:01;14.69;49.50
75683;HTU21D;64295;44.772;39.872;2023-09-19T01:07:30;14.69;49.52
75683;HTU21D;64295;44.772;39.872;2023-09-19T01:09:57;14.69;49.54
75683;HTU21D;64295;44.772;39.872;2023-09-19T01:12:36;14.70;49.60
75683;HTU21D;64295;44.772;39.872;2023-09-19T01:15:16;14.69;49.63
75683;HTU21D;64295;44.772;39.872;2023-09-19T01:25:50;14.51;50.01
75683;HTU21D;64295;44.772;39.872;2023-09-19T01:29:11;14.45;50.11
75683;HTU21D;64295;44.772;39.872;2023-09-19T01:31:31;14.42;50.11
75683;HTU21D;64295;44.772;39.872;2023-09-19T01:34:02;14.43;50.15
75683;HTU21D;64295;44.772;39.872;2023-09-19T01:36:32;14.39;50.20
75683;HTU21D;64295;44.772;39.872;2023-09-19T01:39:03;14.37;50.27
75683;HTU21D;64295;44.772;39.872;2023-09-19T01:45:08;14.32;50.38
75683;HTU21D;64295;44.772;39.872;2023-09-19T01:47:35;14.27;50.41
75683;HTU21D;64295;44.772;39.872;2023-09-19T01:50:19;14.22;50.46
75683;HTU21D;64295;44.772;39.872;2023-09-19T01:53:12;14.20;50.50
75683;HTU21D;64295;44.772;39.872;2023-09-19T01:55:47;14.12;50.57
75683;HTU21D;64295;44.772;39.872;2023-09-19T01:58:37;14.10;50.67
75683;HTU21D;64295;44.772;39.872;2023-09-19T02:01:04;14.09;50.56
75683;HTU21D;64295;44.772;39.872;2023-09-19T02:03:33;14.05;50.57
75683;HTU21D;64295;44.772;39.872;2023-09-19T02:06:00;14.00;50.64
75683;HTU21D;64295;44.772;39.872;2023-09-19T02:08:26;13.96;50.72
75683;HTU21D;64295;44.772;39.872;2023-09-19T02:10:52;13.94;50.79
75683;HTU21D;64295;44.772;39.872;2023-09-19T02:13:19;13.91;50.83
75683;HTU21D;64295;44.772;39.872;2023-09-19T02:15:46;13.90;50.88
75683;HTU21D;64295;44.772;39.872;2023-09-19T02:18:13;13.88;50.92
75683;HTU21D;64295;44.772;39.872;2023-09-19T02:20:41;13.85;50.94
75683;HTU21D;64295;44.772;39.872;2023-09-19T02:23:09;13.82;50.99
75683;HTU21D;64295;44.772;39.872;2023-09-19T02:25:35;13.80;51.04
75683;HTU21D;64295;44.772;39.872;2023-09-19T02:28:01;13.77;51.11
75683;HTU21D;64295;44.772;39.872;2023-09-19T02:30:29;13.74;51.15
75683;HTU21D;64295;44.772;39.872;2023-09-19T02:32:55;13.70;51.20
75683;HTU21D;64295;44.772;39.872;2023-09-19T02:35:22;13.69;51.24
75683;HTU21D;64295;44.772;39.872;2023-09-19T02:37:48;13.65;51.26
75683;HTU21D;64295;44.772;39.872;2023-09-19T02:40:15;13.67;51.28
75683;HTU21D;64295;44.772;39.872;2023-09-19T02:42:47;13.65;51.32
75683;HTU21D;64295;44.772;39.872;2023-09-19T02:45:21;13.61;51.39
75683;HTU21D;64295;44.772;39.872;2023-09-19T02:47:48;13.60;51.37
75683;HTU21D;64295;44.772;39.872;2023-09-19T02:50:14;13.58;51.40
75683;HTU21D;64295;44.772;39.872;2023-09-19T02:52:44;13.55;51.43
75683;HTU21D;64295;44.772;39.872;2023-09-19T02:55:11;13.53;51.46
75683;HTU21D;64295;44.772;39.872;2023-09-19T02:57:38;13.52;51.50
75683;HTU21D;64295;44.772;39.872;2023-09-19T03:00:10;13.50;51.56
75683;HTU21D;64295;44.772;39.872;2023-09-19T03:02:37;13.48;51.58
75683;HTU21D;64295;44.772;39.872;2023-09-19T03:05:05;13.48;51.60
75683;HTU21D;64295;44.772;39.872;2023-09-19T03:07:31;13.46;51.61
75683;HTU21D;64295;44.772;39.872;2023-09-19T03:09:57;13.45;51.65
75683;HTU21D;64295;44.772;39.872;2023-09-19T03:12:23;13.45;51.67
75683;HTU21D;64295;44.772;39.872;2023-09-19T03:14:49;13.44;51.67
75683;HTU21D;64295;44.772;39.872;2023-09-19T03:17:16;13.45;51.66
75683;HTU21D;64295;44.772;39.872;2023-09-19T03:19:45;13.48;51.63
75683;HTU21D;64295;44.772;39.872;2023-09-19T03:22:14;13.48;51.62
75683;HTU21D;64295;44.772;39.872;2023-09-19T03:24:40;13.47;51.66
75683;HTU21D;64295;44.772;39.872;2023-09-19T03:27:09;13.47;51.70
75683;HTU21D;64295;44.772;39.872;2023-09-19T03:29:36;13.46;51.73
75683;HTU21D;64295;44.772;39.872;2023-09-19T03:32:04;13.47;51.74
75683;HTU21D;64295;44.772;39.872;2023-09-19T03:34:30;13.46;51.76
75683;HTU21D;64295;44.772;39.872;2023-09-19T03:36:56;13.46;51.79
75683;HTU21D;64295;44.772;39.872;2023-09-19T03:39:22;13.47;51.77
75683;HTU21D;64295;44.772;39.872;2023-09-19T03:41:48;13.52;51.75
75683;HTU21D;64295;44.772;39.872;2023-09-19T03:44:15;13.51;51.75
75683;HTU21D;64295;44.772;39.872;2023-09-19T03:46:41;13.54;51.73
75683;HTU21D;64295;44.772;39.872;2023-09-19T03:49:07;13.56;51.71
75683;HTU21D;64295;44.772;39.872;2023-09-19T03:51:34;13.61;51.69
75683;HTU21D;64295;44.772;39.872;2023-09-19T03:54:00;13.67;51.66
75683;HTU21D;64295;44.772;39.872;2023-09-19T03:56:26;13.71;51.59
75683;HTU21D;64295;44.772;39.872;2023-09-19T03:58:52;13.76;51.57
75683;HTU21D;64295;44.772;39.872;2023-09-19T04:01:18;13.82;51.51
75683;HTU21D;64295;44.772;39.872;2023-09-19T04:03:44;13.94;51.40
75683;HTU21D;64295;44.772;39.872;2023-09-19T04:06:14;14.42;50.88
75683;HTU21D;64295;44.772;39.872;2023-09-19T04:08:40;14.57;50.60
75683;HTU21D;64295;44.772;39.872;2023-09-19T04:11:07;14.54;50.77
75683;HTU21D;64295;44.772;39.872;2023-09-19T04:13:33;14.56;50.87
75683;HTU21D;64295;44.772;39.872;2023-09-19T04:15:59;14.58;50.92
75683;HTU21D;64295;44.772;39.872;2023-09-19T04:18:25;14.64;50.94
75683;HTU21D;64295;44.772;39.872;2023-09-19T04:20:52;14.71;50.92
75683;HTU21D;64295;44.772;39.872;2023-09-19T04:23:19;14.81;50.86
75683;HTU21D;64295;44.772;39.872;2023-09-19T04:25:46;14.92;50.77
75683;HTU21D;64295;44.772;39.872;2023-09-19T04:28:12;14.98;50.78
75683;HTU21D;64295;44.772;39.872;2023-09-19T04:30:38;15.06;50.76
75683;HTU21D;64295;44.772;39.872;2023-09-19T04:33:06;15.12;50.72
75683;HTU21D;64295;44.772;39.872;2023-09-19T04:35:32;15.21;50.67
75683;HTU21D;64295;44.772;39.872;2023-09-19T04:37:58;15.29;50.61
75683;HTU21D;64295;44.772;39.872;2023-09-19T04:40:24;15.39;50.55
75683;HTU21D;64295;44.772;39.872;2023-09-19T04:42:58;15.49;50.53
75683;HTU21D;64295;44.772;39.872;2023-09-19T04:45:24;15.59;50.43
75683;HTU21D;64295;44.772;39.872;2023-09-19T04:47:50;15.67;50.40
75683;HTU21D;64295;44.772;39.872;2023-09-19T04:50:16;15.72;50.40
75683;HTU21D;64295;44.772;39.872;2023-09-19T04:52:43;15.83;50.37
75683;HTU21D;64295;44.772;39.872;2023-09-19T04:55:13;15.88;50.40
75683;HTU21D;64295;44.772;39.872;2023-09-19T04:57:46;15.93;50.40
75683;HTU21D;64295;44.772;39.872;2023-09-19T05:00:17;16.02;50.39
75683;HTU21D;64295;44.772;39.872;2023-09-19T05:02:45;16.08;50.37
75683;HTU21D;64295;44.772;39.872;2023-09-19T05:05:11;16.16;50.35
75683;HTU21D;64295;44.772;39.872;2023-09-19T05:07:41;16.19;50.37
75683;HTU21D;64295;44.772;39.872;2023-09-19T05:10:08;16.31;50.27
75683;HTU21D;64295;44.772;39.872;2023-09-19T05:12:34;16.44;50.17
75683;HTU21D;64295;44.772;39.872;2023-09-19T05:15:04;16.56;50.08
75683;HTU21D;64295;44.772;39.872;2023-09-19T05:17:30;16.65;50.00
75683;HTU21D;64295;44.772;39.872;2023-09-19T05:19:57;16.76;49.92
75683;HTU21D;64295;44.772;39.872;2023-09-19T05:22:39;16.91;49.79
75683;HTU21D;64295;44.772;39.872;2023-09-19T05:25:06;17.04;49.67
75683;HTU21D;64295;44.772;39.872;2023-09-19T05:27:32;17.16;49.59
75683;HTU21D;64295;44.772;39.872;2023-09-19T05:29:59;17.26;49.50
75683;HTU21D;64295;44.772;39.872;2023-09-19T05:32:25;17.40;49.40
75683;HTU21D;64295;44.772;39.872;2023-09-19T05:34:51;17.56;49.27
75683;HTU21D;64295;44.772;39.872;2023-09-19T05:37:22;17.72;49.14
75683;HTU21D;64295;44.772;39.872;2023-09-19T05:39:49;17.87;48.96
75683;HTU21D;64295;44.772;39.872;2023-09-19T05:42:15;18.02;48.88
75683;HTU21D;64295;44.772;39.872;2023-09-19T05:44:41;18.14;48.79
75683;HTU21D;64295;44.772;39.872;2023-09-19T05:47:07;18.27;48.68
75683;HTU21D;64295;44.772;39.872;2023-09-19T05:49:37;18.41;48.60
75683;HTU21D;64295;44.772;39.872;2023-09-19T05:52:04;18.55;48.47
75683;HTU21D;64295;44.772;39.872;2023-09-19T05:54:30;18.67;48.31
75683;HTU21D;64295;44.772;39.872;2023-09-19T05:56:56;18.80;48.24
75683;HTU21D;64295;44.772;39.872;2023-09-19T05:59:23;18.96;48.14
75683;HTU21D;64295;44.772;39.872;2023-09-19T06:01:49;19.10;48.02
75683;HTU21D;64295;44.772;39.872;2023-09-19T06:04:15;19.25;47.93
75683;HTU21D;64295;44.772;39.872;2023-09-19T06:06:41;19.38;47.82
75683;HTU21D;64295;44.772;39.872;2023-09-19T06:09:08;19.53;47.73
75683;HTU21D;64295;44.772;39.872;2023-09-19T06:11:36;19.65;47.67
75683;HTU21D;64295;44.772;39.872;2023-09-19T06:14:03;19.76;47.60
75683;HTU21D;64295;44.772;39.872;2023-09-19T06:16:30;19.91;47.48
75683;HTU21D;64295;44.772;39.872;2023-09-19T06:18:57;20.07;47.36
75683;HTU21D;64295;44.772;39.872;2023-09-19T06:21:26;20.25;47.20
75683;HTU21D;64295;44.772;39.872;2023-09-19T06:23:53;20.40;47.09
75683;HTU21D;64295;44.772;39.872;2023-09-19T06:26:19;20.54;47.03
75683;HTU21D;64295;44.772;39.872;2023-09-19T06:28:45;20.69;46.92
75683;HTU21D;64295;44.772;39.872;2023-09-19T06:31:12;20.84;46.81
75683;HTU21D;64295;44.772;39.872;2023-09-19T06:33:38;21.03;46.64
75683;HTU21D;64295;44.772;39.872;2023-09-19T06:36:05;21.21;46.49
75683;HTU21D;64295;44.772;39.872;2023-09-19T06:38:32;21.36;46.38
75683;HTU21D;64295;44.772;39.872;2023-09-19T06:41:00;21.50;46.28
75683;HTU21D;64295;44.772;39.872;2023-09-19T06:43:27;21.64;46.19
75683;HTU21D;64295;44.772;39.872;2023-09-19T06:45:56;21.78;46.08
75683;HTU21D;64295;44.772;39.872;2023-09-19T06:48:23;21.93;45.96
75683;HTU21D;64295;44.772;39.872;2023-09-19T06:50:55;22.04;45.88
75683;HTU21D;64295;44.772;39.872;2023-09-19T06:53:21;22.13;45.78
75683;HTU21D;64295;44.772;39.872;2023-09-19T06:55:50;22.24;45.65
75683;HTU21D;64295;44.772;39.872;2023-09-19T06:58:16;22.32;45.57
75683;HTU21D;64295;44.772;39.872;2023-09-19T07:00:42;22.38;45.51
75683;HTU21D;64295;44.772;39.872;2023-09-19T07:03:11;22.48;45.46
75683;HTU21D;64295;44.772;39.872;2023-09-19T07:05:39;22.62;45.32
75683;HTU21D;64295;44.772;39.872;2023-09-19T07:08:07;22.72;45.16
75683;HTU21D;64295;44.772;39.872;2023-09-19T07:10:33;22.80;45.09
75683;HTU21D;64295;44.772;39.872;2023-09-19T07:13:01;22.91;44.97
75683;HTU21D;64295;44.772;39.872;2023-09-19T07:15:28;22.94;44.90
75683;HTU21D;64295;44.772;39.872;2023-09-19T07:17:54;22.99;44.83
75683;HTU21D;64295;44.772;39.872;2023-09-19T07:20:22;23.07;44.73
75683;HTU21D;64295;44.772;39.872;2023-09-19T07:22:51;23.18;44.59
75683;HTU21D;64295;44.772;39.872;2023-09-19T07:25:16;23.24;44.51
75683;HTU21D;64295;44.772;39.872;2023-09-19T07:27:42;23.31;44.42
75683;HTU21D;64295;44.772;39.872;2023-09-19T07:30:09;23.41;44.25
75683;HTU21D;64295;44.772;39.872;2023-09-19T07:32:37;23.49;44.13
75683;HTU21D;64295;44.772;39.872;2023-09-19T07:35:04;23.60;44.01
75683;HTU21D;64295;44.772;39.872;2023-09-19T07:37:31;23.81;43.71
75683;HTU21D;64295;44.772;39.872;2023-09-19T07:40:05;23.91;43.49
75683;HTU21D;64295;44.772;39.872;2023-09-19T07:42:37;24.06;43.30
75683;HTU21D;64295;44.772;39.872;2023-09-19T07:45:09;24.15;43.39
75683;HTU21D;64295;44.772;39.872;2023-09-19T07:47:43;24.24;43.42
75683;HTU21D;64295;44.772;39.872;2023-09-19T07:50:09;24.33;43.26
75683;HTU21D;64295;44.772;39.872;2023-09-19T07:52:35;24.41;43.04
75683;HTU21D;64295;44.772;39.872;2023-09-19T07:55:01;24.51;42.86
75683;HTU21D;64295;44.772;39.872;2023-09-19T07:57:32;24.57;42.64
75683;HTU21D;64295;44.772;39.872;2023-09-19T08:00:00;24.63;42.54
75683;HTU21D;64295;44.772;39.872;2023-09-19T08:02:26;24.74;42.39
75683;HTU21D;64295;44.772;39.872;2023-09-19T08:04:53;24.82;42.19
75683;HTU21D;64295;44.772;39.872;2023-09-19T08:07:19;24.84;42.07
75683;HTU21D;64295;44.772;39.872;2023-09-19T08:09:45;24.91;42.00
75683;HTU21D;64295;44.772;39.872;2023-09-19T08:12:14;25.00;41.88
75683;HTU21D;64295;44.772;39.872;2023-09-19T08:14:40;25.20;41.58
75683;HTU21D;64295;44.772;39.872;2023-09-19T08:17:09;25.35;41.58
75683;HTU21D;64295;44.772;39.872;2023-09-19T08:19:34;25.42;41.39
75683;HTU21D;64295;44.772;39.872;2023-09-19T08:22:02;25.50;41.21
75683;HTU21D;64295;44.772;39.872;2023-09-19T08:24:29;25.62;41.00
75683;HTU21D;64295;44.772;39.872;2023-09-19T08:26:56;25.72;40.77
75683;HTU21D;64295;44.772;39.872;2023-09-19T08:29:24;25.79;40.52
75683;HTU21D;64295;44.772;39.872;2023-09-19T08:31:58;25.77;40.46
75683;HTU21D;64295;44.772;39.872;2023-09-19T08:34:25;25.79;40.38
75683;HTU21D;64295;44.772;39.872;2023-09-19T08:36:54;25.86;40.14
75683;HTU21D;64295;44.772;39.872;2023-09-19T08:39:23;25.92;40.04
75683;HTU21D;64295;44.772;39.872;2023-09-19T08:41:49;25.94;39.98
75683;HTU21D;64295;44.772;39.872;2023-09-19T08:44:15;25.97;39.92
75683;HTU21D;64295;44.772;39.872;2023-09-19T08:46:42;26.08;39.75
75683;HTU21D;64295;44.772;39.872;2023-09-19T08:49:22;26.18;39.53
75683;HTU21D;64295;44.772;39.872;2023-09-19T08:52:04;26.35;39.33
75683;HTU21D;64295;44.772;39.872;2023-09-19T08:54:35;26.51;39.15
75683;HTU21D;64295;44.772;39.872;2023-09-19T08:57:07;26.61;39.10
75683;HTU21D;64295;44.772;39.872;2023-09-19T08:59:38;26.72;38.91
75683;HTU21D;64295;44.772;39.872;2023-09-19T09:02:11;26.75;38.87
75683;HTU21D;64295;44.772;39.872;2023-09-19T09:04:41;26.79;38.75
75683;HTU21D;64295;44.772;39.872;2023-09-19T09:07:12;26.80;38.75
75683;HTU21D;64295;44.772;39.872;2023-09-19T09:09:39;26.84;38.69
75683;HTU21D;64295;44.772;39.872;2023-09-19T09:12:12;26.98;38.47
75683;HTU21D;64295;44.772;39.872;2023-09-19T09:14:40;27.12;38.33
75683;HTU21D;64295;44.772;39.872;2023-09-19T09:17:07;27.23;38.20
75683;HTU21D;64295;44.772;39.872;2023-09-19T09:19:33;27.23;38.16
75683;HTU21D;64295;44.772;39.872;2023-09-19T09:22:09;27.20;38.22
75683;HTU21D;64295;44.772;39.872;2023-09-19T09:24:36;27.17;38.30
75683;HTU21D;64295;44.772;39.872;2023-09-19T09:27:05;27.28;38.14
75683;HTU21D;64295;44.772;39.872;2023-09-19T09:32:26;27.42;37.93
75683;HTU21D;64295;44.772;39.872;2023-09-19T09:34:59;27.55;37.77
75683;HTU21D;64295;44.772;39.872;2023-09-19T09:37:26;27.58;37.69
75683;HTU21D;64295;44.772;39.872;2023-09-19T09:39:55;27.59;37.56
75683;HTU21D;64295;44.772;39.872;2023-09-19T09:42:31;27.57;37.52
75683;HTU21D;64295;44.772;39.872;2023-09-19T09:45:20;27.51;37.62
75683;HTU21D;64295;44.772;39.872;2023-09-19T09:47:54;27.58;37.54
75683;HTU21D;64295;44.772;39.872;2023-09-19T09:50:30;27.69;37.31
75683;HTU21D;64295;44.772;39.872;2023-09-19T09:53:24;27.74;37.27
75683;HTU21D;64295;44.772;39.872;2023-09-19T09:56:08;27.87;36.97
75683;HTU21D;64295;44.772;39.872;2023-09-19T09:58:40;27.90;36.94
75683;HTU21D;64295;44.772;39.872;2023-09-19T10:01:14;27.94;36.85
75683;HTU21D;64295;44.772;39.872;2023-09-19T10:03:42;27.94;36.77
75683;HTU21D;64295;44.772;39.872;2023-09-19T10:06:17;27.98;36.77
75683;HTU21D;64295;44.772;39.872;2023-09-19T10:09:05;28.00;36.57
75683;HTU21D;64295;44.772;39.872;2023-09-19T10:11:45;28.03;36.52
75683;HTU21D;64295;44.772;39.872;2023-09-19T10:14:15;28.04;36.35
75683;HTU21D;64295;44.772;39.872;2023-09-19T10:16:48;28.03;36.24
75683;HTU21D;64295;44.772;39.872;2023-09-19T10:19:33;28.04;36.15
75683;HTU21D;64295;44.772;39.872;2023-09-19T10:22:02;28.06;36.09
75683;HTU21D;64295;44.772;39.872;2023-09-19T10:24:31;28.08;36.08
75683;HTU21D;64295;44.772;39.872;2023-09-19T10:26:59;28.11;36.03
75683;HTU21D;64295;44.772;39.872;2023-09-19T10:29:27;28.25;35.76
75683;HTU21D;64295;44.772;39.872;2023-09-19T10:31:58;28.28;35.60
75683;HTU21D;64295;44.772;39.872;2023-09-19T10:34:25;28.23;35.60
75683;HTU21D;64295;44.772;39.872;2023-09-19T10:36:52;28.27;35.54
75683;HTU21D;64295;44.772;39.872;2023-09-19T10:39:19;28.31;35.40
75683;HTU21D;64295;44.772;39.872;2023-09-19T10:41:56;28.33;35.27
75683;HTU21D;64295;44.772;39.872;2023-09-19T10:44:32;28.44;35.09
75683;HTU21D;64295;44.772;39.872;2023-09-19T10:46:58;28.46;35.02
75683;HTU21D;64295;44.772;39.872;2023-09-19T10:49:25;28.50;34.92
75683;HTU21D;64295;44.772;39.872;2023-09-19T10:51:56;28.50;34.72
75683;HTU21D;64295;44.772;39.872;2023-09-19T10:54:27;28.45;34.66
75683;HTU21D;64295;44.772;39.872;2023-09-19T10:56:54;28.44;34.65
75683;HTU21D;64295;44.772;39.872;2023-09-19T10:59:24;28.56;34.48
75683;HTU21D;64295;44.772;39.872;2023-09-19T11:01:55;28.64;34.28
75683;HTU21D;64295;44.772;39.872;2023-09-19T11:07:04;28.65;34.15
75683;HTU21D;64295;44.772;39.872;2023-09-19T11:09:50;28.60;34.22
75683;HTU21D;64295;44.772;39.872;2023-09-19T11:14:55;28.54;34.21
75683;HTU21D;64295;44.772;39.872;2023-09-19T11:30:51;28.68;33.86
75683;HTU21D;64295;44.772;39.872;2023-09-19T11:33:28;28.64;33.87
75683;HTU21D;64295;44.772;39.872;2023-09-19T11:49:30;28.68;33.51
75683;HTU21D;64295;44.772;39.872;2023-09-19T11:52:01;28.71;33.31
75683;HTU21D;64295;44.772;39.872;2023-09-19T11:54:31;28.73;33.24
75683;HTU21D;64295;44.772;39.872;2023-09-19T11:56:58;28.75;33.18
75683;HTU21D;64295;44.772;39.872;2023-09-19T11:59:29;28.78;33.01
75683;HTU21D;64295;44.772;39.872;2023-09-19T12:04:44;28.68;32.93
75683;HTU21D;64295;44.772;39.872;2023-09-19T12:07:16;28.68;32.89
75683;HTU21D;64295;44.772;39.872;2023-09-19T12:10:13;28.65;32.88
75683;HTU21D;64295;44.772;39.872;2023-09-19T12:12:47;28.61;32.94
75683;HTU21D;64295;44.772;39.872;2023-09-19T12:15:16;28.67;32.86
75683;HTU21D;64295;44.772;39.872;2023-09-19T12:17:48;28.69;32.80
75683;HTU21D;64295;44.772;39.872;2023-09-19T12:20:14;28.62;32.78
75683;HTU21D;64295;44.772;39.872;2023-09-19T12:22:44;28.62;32.65
75683;HTU21D;64295;44.772;39.872;2023-09-19T12:25:11;28.60;32.64
75683;HTU21D;64295;44.772;39.872;2023-09-19T12:27:47;28.60;32.53
75683;HTU21D;64295;44.772;39.872;2023-09-19T12:30:15;28.63;32.46
75683;HTU21D;64295;44.772;39.872;2023-09-19T12:32:43;28.60;32.31
75683;HTU21D;64295;44.772;39.872;2023-09-19T12:35:10;28.59;32.28
75683;HTU21D;64295;44.772;39.872;2023-09-19T12:37:37;28.56;32.24
75683;HTU21D;64295;44.772;39.872;2023-09-19T12:40:11;28.50;32.66
75683;HTU21D;64295;44.772;39.872;2023-09-19T12:42:44;28.48;32.51
75683;HTU21D;64295;44.772;39.872;2023-09-19T12:45:11;28.45;32.41
75683;HTU21D;64295;44.772;39.872;2023-09-19T12:47:39;28.49;32.24
75683;HTU21D;64295;44.772;39.872;2023-09-19T12:50:12;28.49;32.12
75683;HTU21D;64295;44.772;39.872;2023-09-19T12:52:48;28.46;32.19
75683;HTU21D;64295;44.772;39.872;2023-09-19T12:58:02;28.42;32.15
75683;HTU21D;64295;44.772;39.872;2023-09-19T13:00:39;28.42;32.12
75683;HTU21D;64295;44.772;39.872;2023-09-19T13:03:18;28.38;32.06
75683;HTU21D;64295;44.772;39.872;2023-09-19T13:05:52;28.33;32.03
75683;HTU21D;64295;44.772;39.872;2023-09-19T13:08:37;28.34;31.99
75683;HTU21D;64295;44.772;39.872;2023-09-19T13:11:16;28.37;31.97
75683;HTU21D;64295;44.772;39.872;2023-09-19T13:14:19;28.33;31.99
75683;HTU21D;64295;44.772;39.872;2023-09-19T13:19:49;28.30;31.90
75683;HTU21D;64295;44.772;39.872;2023-09-19T13:22:39;28.28;31.89
75683;HTU21D;64295;44.772;39.872;2023-09-19T13:25:07;28.21;31.87
75683;HTU21D;64295;44.772;39.872;2023-09-19T13:27:34;28.19;31.86
75683;HTU21D;64295;44.772;39.872;2023-09-19T13:29:59;28.14;31.82
75683;HTU21D;64295;44.772;39.872;2023-09-19T13:32:26;28.15;31.76
75683;HTU21D;64295;44.772;39.872;2023-09-19T13:34:51;28.18;31.63
75683;HTU21D;64295;44.772;39.872;2023-09-19T13:37:17;28.16;31.57
75683;HTU21D;64295;44.772;39.872;2023-09-19T13:39:44;28.20;31.46
75683;HTU21D;64295;44.772;39.872;2023-09-19T13:42:13;28.24;31.37
75683;HTU21D;64295;44.772;39.872;2023-09-19T13:44:39;28.25;31.34
75683;HTU21D;64295;44.772;39.872;2023-09-19T13:47:06;28.23;31.32
75683;HTU21D;64295;44.772;39.872;2023-09-19T13:49:35;28.24;31.30
75683;HTU21D;64295;44.772;39.872;2023-09-19T13:52:02;28.23;31.30
75683;HTU21D;64295;44.772;39.872;2023-09-19T13:54:31;28.18;31.28
75683;HTU21D;64295;44.772;39.872;2023-09-19T13:56:57;28.13;31.25
75683;HTU21D;64295;44.772;39.872;2023-09-19T13:59:23;28.08;31.19
75683;HTU21D;64295;44.772;39.872;2023-09-19T14:01:54;28.03;31.25
75683;HTU21D;64295;44.772;39.872;2023-09-19T14:04:21;28.00;31.25
75683;HTU21D;64295;44.772;39.872;2023-09-19T14:06:47;28.00;31.22
75683;HTU21D;64295;44.772;39.872;2023-09-19T14:09:13;27.99;31.19
75683;HTU21D;64295;44.772;39.872;2023-09-19T14:11:39;27.95;31.13
75683;HTU21D;64295;44.772;39.872;2023-09-19T14:14:07;27.86;31.19
75683;HTU21D;64295;44.772;39.872;2023-09-19T14:16:33;27.84;31.19
75683;HTU21D;64295;44.772;39.872;2023-09-19T14:18:59;27.80;31.22
75683;HTU21D;64295;44.772;39.872;2023-09-19T14:21:32;27.74;31.22
75683;HTU21D;64295;44.772;39.872;2023-09-19T14:23:58;27.65;31.25
75683;HTU21D;64295;44.772;39.872;2023-09-19T14:26:24;27.56;31.32
75683;HTU21D;64295;44.772;39.872;2023-09-19T14:28:50;27.52;31.34
75683;HTU21D;64295;44.772;39.872;2023-09-19T14:31:16;27.43;31.38
75683;HTU21D;64295;44.772;39.872;2023-09-19T14:33:41;27.31;31.39
75683;HTU21D;64295;44.772;39.872;2023-09-19T14:36:09;27.19;31.45
75683;HTU21D;64295;44.772;39.872;2023-09-19T14:38:37;27.08;31.48
75683;HTU21D;64295;44.772;39.872;2023-09-19T14:41:05;26.96;31.54
75683;HTU21D;64295;44.772;39.872;2023-09-19T14:43:32;26.82;31.64
75683;HTU21D;64295;44.772;39.872;2023-09-19T14:46:07;26.70;31.64
75683;HTU21D;64295;44.772;39.872;2023-09-19T14:48:36;26.57;31.79
75683;HTU21D;64295;44.772;39.872;2023-09-19T14:51:09;26.47;31.79
75683;HTU21D;64295;44.772;39.872;2023-09-19T14:53:35;26.38;31.84
75683;HTU21D;64295;44.772;39.872;2023-09-19T14:56:04;26.26;31.89
75683;HTU21D;64295;44.772;39.872;2023-09-19T14:58:31;26.17;31.93
75683;HTU21D;64295;44.772;39.872;2023-09-19T15:01:10;26.09;31.93
75683;HTU21D;64295;44.772;39.872;2023-09-19T15:03:37;26.02;32.01
75683;HTU21D;64295;44.772;39.872;2023-09-19T15:06:14;25.92;32.06
75683;HTU21D;64295;44.772;39.872;2023-09-19T15:08:44;25.83;32.12
75683;HTU21D;64295;44.772;39.872;2023-09-19T15:11:14;25.73;32.21
75683;HTU21D;64295;44.772;39.872;2023-09-19T15:13:43;25.62;32.25
75683;HTU21D;64295;44.772;39.872;2023-09-19T15:16:09;25.54;32.31
75683;HTU21D;64295;44.772;39.872;2023-09-19T15:18:40;25.47;32.34
75683;HTU21D;64295;44.772;39.872;2023-09-19T15:21:08;25.40;32.41
75683;HTU21D;64295;44.772;39.872;2023-09-19T15:23:36;25.31;32.44
75683;HTU21D;64295;44.772;39.872;2023-09-19T15:26:05;25.22;32.50
75683;HTU21D;64295;44.772;39.872;2023-09-19T15:28:32;25.12;32.60
75683;HTU21D;64295;44.772;39.872;2023-09-19T15:31:04;25.02;32.64
75683;HTU21D;64295;44.772;39.872;2023-09-19T15:33:33;24.95;32.70
75683;HTU21D;64295;44.772;39.872;2023-09-19T15:36:08;24.90;32.70
75683;HTU21D;64295;44.772;39.872;2023-09-19T15:38:55;24.79;32.73
75683;HTU21D;64295;44.772;39.872;2023-09-19T15:44:00;24.63;32.89
75683;HTU21D;64295;44.772;39.872;2023-09-19T15:46:27;24.56;32.94
75683;HTU21D;64295;44.772;39.872;2023-09-19T15:48:56;24.46;33.02
75683;HTU21D;64295;44.772;39.872;2023-09-19T15:51:23;24.39;33.08
75683;HTU21D;64295;44.772;39.872;2023-09-19T15:53:51;24.30;33.13
75683;HTU21D;64295;44.772;39.872;2023-09-19T15:56:18;24.23;33.18
75683;HTU21D;64295;44.772;39.872;2023-09-19T15:58:52;24.15;33.20
75683;HTU21D;64295;44.772;39.872;2023-09-19T16:01:22;24.09;33.25
75683;HTU21D;64295;44.772;39.872;2023-09-19T16:03:50;24.05;33.25
75683;HTU21D;64295;44.772;39.872;2023-09-19T16:06:28;24.04;33.25
75683;HTU21D;64295;44.772;39.872;2023-09-19T16:08:58;24.03;33.21
75683;HTU21D;64295;44.772;39.872;2023-09-19T16:11:28;24.02;33.21
75683;HTU21D;64295;44.772;39.872;2023-09-19T16:13:56;24.00;33.22